sensor_id;sensor_type;location;lat;lon;timestamp;P1;durP1;ratioP1;P2;durP2;ratioP2
66145;SDS011;52948;60.040;30.320;2024-02-23T00:04:31;8.82;;;4.97;;
66145;SDS011;52948;60.040;30.320;2024-02-23T00:09:33;10.43;;;4.75;;
66145;SDS011;52948;60.040;30.320;2024-02-23T00:14:36;7.70;;;5.05;;
66145;SDS011;52948;60.040;30.320;2024-02-23T00:19:38;8.95;;;4.35;;
66145;SDS011;52948;60.040;30.320;2024-02-23T00:24:40;9.25;;;4.75;;
66145;SDS011;52948;60.040;30.320;2024-02-23T00:29:43;5.57;;;3.72;;
66145;SDS011;52948;60.040;30.320;2024-02-23T00:34:46;9.18;;;4.95;;
66145;SDS011;52948;60.040;30.320;2024-02-23T00:39:48;10.43;;;5.20;;
66145;SDS011;52948;60.040;30.320;2024-02-23T00:44:51;9.05;;;5.03;;
66145;SDS011;52948;60.040;30.320;2024-02-23T00:49:53;12.05;;;4.88;;
66145;SDS011;52948;60.040;30.320;2024-02-23T00:54:55;9.30;;;5.60;;
66145;SDS011;52948;60.040;30.320;2024-02-23T00:59:58;9.55;;;4.80;;
66145;SDS011;52948;60.040;30.320;2024-02-23T01:05:00;8.80;;;4.85;;
66145;SDS011;52948;60.040;30.320;2024-02-23T01:10:02;10.70;;;5.35;;
66145;SDS011;52948;60.040;30.320;2024-02-23T01:15:05;8.45;;;4.18;;
66145;SDS011;52948;60.040;30.320;2024-02-23T01:20:10;9.00;;;5.03;;
66145;SDS011;52948;60.040;30.320;2024-02-23T01:25:12;7.30;;;4.50;;
66145;SDS011;52948;60.040;30.320;2024-02-23T01:30:16;7.97;;;4.03;;
66145;SDS011;52948;60.040;30.320;2024-02-23T01:35:19;8.98;;;5.28;;
66145;SDS011;52948;60.040;30.320;2024-02-23T01:40:21;9.43;;;4.75;;
66145;SDS011;52948;60.040;30.320;2024-02-23T01:45:23;8.70;;;5.43;;
66145;SDS011;52948;60.040;30.320;2024-02-23T01:50:26;11.18;;;4.90;;
66145;SDS011;52948;60.040;30.320;2024-02-23T01:55:28;9.15;;;4.75;;
66145;SDS011;52948;60.040;30.320;2024-02-23T02:00:33;9.00;;;4.80;;
66145;SDS011;52948;60.040;30.320;2024-02-23T02:05:36;9.88;;;4.63;;
66145;SDS011;52948;60.040;30.320;2024-02-23T02:10:39;4.72;;;2.53;;
66145;SDS011;52948;60.040;30.320;2024-02-23T02:15:42;9.45;;;4.78;;
66145;SDS011;52948;60.040;30.320;2024-02-23T02:20:51;8.10;;;4.95;;
66145;SDS011;52948;60.040;30.320;2024-02-23T02:25:58;8.35;;;5.20;;
66145;SDS011;52948;60.040;30.320;2024-02-23T02:31:02;8.70;;;5.63;;
66145;SDS011;52948;60.040;30.320;2024-02-23T02:36:05;9.90;;;4.97;;
66145;SDS011;52948;60.040;30.320;2024-02-23T02:41:07;9.27;;;4.63;;
66145;SDS011;52948;60.040;30.320;2024-02-23T02:46:10;10.07;;;5.93;;
66145;SDS011;52948;60.040;30.320;2024-02-23T02:51:12;9.32;;;5.45;;
66145;SDS011;52948;60.040;30.320;2024-02-23T02:56:14;8.52;;;5.13;;
66145;SDS011;52948;60.040;30.320;2024-02-23T03:01:17;9.93;;;4.65;;
66145;SDS011;52948;60.040;30.320;2024-02-23T03:06:19;9.45;;;5.10;;
66145;SDS011;52948;60.040;30.320;2024-02-23T03:11:21;9.82;;;5.30;;
66145;SDS011;52948;60.040;30.320;2024-02-23T03:16:24;10.73;;;5.72;;
66145;SDS011;52948;60.040;30.320;2024-02-23T03:21:32;8.93;;;4.82;;
66145;SDS011;52948;60.040;30.320;2024-02-23T03:26:34;8.35;;;5.78;;
66145;SDS011;52948;60.040;30.320;2024-02-23T03:31:38;9.68;;;4.97;;
66145;SDS011;52948;60.040;30.320;2024-02-23T03:36:41;9.02;;;5.25;;
66145;SDS011;52948;60.040;30.320;2024-02-23T03:41:43;10.35;;;5.72;;
66145;SDS011;52948;60.040;30.320;2024-02-23T03:46:45;10.82;;;5.70;;
66145;SDS011;52948;60.040;30.320;2024-02-23T03:51:48;10.75;;;6.22;;
66145;SDS011;52948;60.040;30.320;2024-02-23T03:56:50;11.70;;;6.65;;
66145;SDS011;52948;60.040;30.320;2024-02-23T04:01:52;11.70;;;5.50;;
66145;SDS011;52948;60.040;30.320;2024-02-23T04:06:54;9.75;;;5.82;;
66145;SDS011;52948;60.040;30.320;2024-02-23T04:11:57;11.68;;;5.70;;
66145;SDS011;52948;60.040;30.320;2024-02-23T04:16:59;9.55;;;5.00;;
66145;SDS011;52948;60.040;30.320;2024-02-23T04:22:01;8.98;;;5.30;;
66145;SDS011;52948;60.040;30.320;2024-02-23T04:27:04;11.20;;;6.45;;
66145;SDS011;52948;60.040;30.320;2024-02-23T04:32:07;9.32;;;5.65;;
66145;SDS011;52948;60.040;30.320;2024-02-23T04:37:09;8.00;;;4.15;;
66145;SDS011;52948;60.040;30.320;2024-02-23T04:42:11;9.85;;;5.25;;
66145;SDS011;52948;60.040;30.320;2024-02-23T04:47:13;12.00;;;6.25;;
66145;SDS011;52948;60.040;30.320;2024-02-23T04:52:15;9.10;;;5.70;;
66145;SDS011;52948;60.040;30.320;2024-02-23T04:57:18;9.48;;;4.97;;
66145;SDS011;52948;60.040;30.320;2024-02-23T05:02:20;7.50;;;5.03;;
66145;SDS011;52948;60.040;30.320;2024-02-23T05:07:22;8.85;;;5.43;;
66145;SDS011;52948;60.040;30.320;2024-02-23T05:12:25;10.48;;;5.80;;
66145;SDS011;52948;60.040;30.320;2024-02-23T05:17:27;5.70;;;3.60;;
66145;SDS011;52948;60.040;30.320;2024-02-23T05:22:29;9.43;;;5.20;;
66145;SDS011;52948;60.040;30.320;2024-02-23T05:27:32;9.60;;;4.70;;
66145;SDS011;52948;60.040;30.320;2024-02-23T05:32:34;9.02;;;4.63;;
66145;SDS011;52948;60.040;30.320;2024-02-23T05:37:36;6.32;;;4.43;;
66145;SDS011;52948;60.040;30.320;2024-02-23T05:42:39;8.32;;;4.70;;
66145;SDS011;52948;60.040;30.320;2024-02-23T05:47:41;7.70;;;4.60;;
66145;SDS011;52948;60.040;30.320;2024-02-23T05:52:43;5.85;;;3.38;;
66145;SDS011;52948;60.040;30.320;2024-02-23T05:57:46;5.78;;;3.08;;
66145;SDS011;52948;60.040;30.320;2024-02-23T06:02:48;7.45;;;4.25;;
66145;SDS011;52948;60.040;30.320;2024-02-23T06:07:52;8.05;;;4.10;;
66145;SDS011;52948;60.040;30.320;2024-02-23T06:12:54;5.65;;;4.05;;
66145;SDS011;52948;60.040;30.320;2024-02-23T06:17:57;5.78;;;3.63;;
66145;SDS011;52948;60.040;30.320;2024-02-23T06:23:00;5.63;;;3.97;;
66145;SDS011;52948;60.040;30.320;2024-02-23T06:28:02;6.78;;;4.05;;
66145;SDS011;52948;60.040;30.320;2024-02-23T06:33:05;5.13;;;3.42;;
66145;SDS011;52948;60.040;30.320;2024-02-23T06:38:08;7.00;;;4.40;;
66145;SDS011;52948;60.040;30.320;2024-02-23T06:43:12;7.57;;;4.35;;
66145;SDS011;52948;60.040;30.320;2024-02-23T06:48:15;8.45;;;5.43;;
66145;SDS011;52948;60.040;30.320;2024-02-23T06:53:17;7.38;;;4.13;;
66145;SDS011;52948;60.040;30.320;2024-02-23T06:58:19;6.75;;;4.28;;
66145;SDS011;52948;60.040;30.320;2024-02-23T07:03:21;6.45;;;3.63;;
66145;SDS011;52948;60.040;30.320;2024-02-23T07:08:24;5.93;;;3.60;;
66145;SDS011;52948;60.040;30.320;2024-02-23T07:13:26;6.43;;;3.20;;
66145;SDS011;52948;60.040;30.320;2024-02-23T07:18:28;2.70;;;1.70;;
66145;SDS011;52948;60.040;30.320;2024-02-23T07:23:31;4.38;;;2.75;;
66145;SDS011;52948;60.040;30.320;2024-02-23T07:28:33;6.63;;;3.90;;
66145;SDS011;52948;60.040;30.320;2024-02-23T07:33:37;5.20;;;3.20;;
66145;SDS011;52948;60.040;30.320;2024-02-23T07:38:40;9.90;;;5.00;;
66145;SDS011;52948;60.040;30.320;2024-02-23T07:43:42;6.15;;;3.75;;
66145;SDS011;52948;60.040;30.320;2024-02-23T07:48:45;8.25;;;5.30;;
66145;SDS011;52948;60.040;30.320;2024-02-23T07:53:50;7.47;;;4.60;;
66145;SDS011;52948;60.040;30.320;2024-02-23T07:58:53;5.03;;;3.35;;
66145;SDS011;52948;60.040;30.320;2024-02-23T08:03:56;5.43;;;3.35;;
66145;SDS011;52948;60.040;30.320;2024-02-23T08:08:59;6.47;;;4.10;;
66145;SDS011;52948;60.040;30.320;2024-02-23T08:14:01;5.95;;;3.88;;
66145;SDS011;52948;60.040;30.320;2024-02-23T08:19:04;8.07;;;3.58;;
66145;SDS011;52948;60.040;30.320;2024-02-23T08:24:07;5.05;;;3.40;;
66145;SDS011;52948;60.040;30.320;2024-02-23T08:29:09;7.05;;;4.30;;
66145;SDS011;52948;60.040;30.320;2024-02-23T08:34:11;5.95;;;3.80;;
66145;SDS011;52948;60.040;30.320;2024-02-23T08:39:14;6.60;;;3.83;;
66145;SDS011;52948;60.040;30.320;2024-02-23T08:44:17;8.68;;;4.13;;
66145;SDS011;52948;60.040;30.320;2024-02-23T08:49:19;5.82;;;4.00;;
66145;SDS011;52948;60.040;30.320;2024-02-23T08:54:21;8.10;;;4.53;;
66145;SDS011;52948;60.040;30.320;2024-02-23T08:59:24;6.78;;;3.55;;
66145;SDS011;52948;60.040;30.320;2024-02-23T09:04:26;5.80;;;3.92;;
66145;SDS011;52948;60.040;30.320;2024-02-23T09:09:28;7.82;;;4.32;;
66145;SDS011;52948;60.040;30.320;2024-02-23T09:14:30;4.97;;;2.83;;
66145;SDS011;52948;60.040;30.320;2024-02-23T09:19:32;6.43;;;3.55;;
66145;SDS011;52948;60.040;30.320;2024-02-23T09:24:35;7.43;;;3.92;;
66145;SDS011;52948;60.040;30.320;2024-02-23T09:29:40;4.90;;;2.75;;
66145;SDS011;52948;60.040;30.320;2024-02-23T09:34:42;5.30;;;3.13;;
66145;SDS011;52948;60.040;30.320;2024-02-23T09:39:45;4.82;;;2.53;;
66145;SDS011;52948;60.040;30.320;2024-02-23T09:44:47;5.30;;;3.28;;
66145;SDS011;52948;60.040;30.320;2024-02-23T09:49:56;5.18;;;2.95;;
66145;SDS011;52948;60.040;30.320;2024-02-23T09:54:59;8.10;;;4.50;;
66145;SDS011;52948;60.040;30.320;2024-02-23T10:00:04;8.70;;;4.78;;
66145;SDS011;52948;60.040;30.320;2024-02-23T10:05:14;7.53;;;4.47;;
66145;SDS011;52948;60.040;30.320;2024-02-23T10:10:22;4.40;;;2.97;;
66145;SDS011;52948;60.040;30.320;2024-02-23T10:15:35;6.38;;;3.47;;
66145;SDS011;52948;60.040;30.320;2024-02-23T10:20:37;5.85;;;3.33;;
66145;SDS011;52948;60.040;30.320;2024-02-23T10:25:40;7.28;;;4.22;;
66145;SDS011;52948;60.040;30.320;2024-02-23T10:30:42;8.48;;;4.78;;
66145;SDS011;52948;60.040;30.320;2024-02-23T10:35:45;8.80;;;5.22;;
66145;SDS011;52948;60.040;30.320;2024-02-23T10:40:48;6.57;;;4.18;;
66145;SDS011;52948;60.040;30.320;2024-02-23T10:45:52;7.05;;;4.20;;
66145;SDS011;52948;60.040;30.320;2024-02-23T10:50:56;9.98;;;4.68;;
66145;SDS011;52948;60.040;30.320;2024-02-23T10:55:59;7.22;;;4.15;;
66145;SDS011;52948;60.040;30.320;2024-02-23T11:01:03;7.28;;;4.05;;
66145;SDS011;52948;60.040;30.320;2024-02-23T11:06:09;8.87;;;5.10;;
66145;SDS011;52948;60.040;30.320;2024-02-23T11:11:11;9.95;;;6.25;;
66145;SDS011;52948;60.040;30.320;2024-02-23T11:16:21;8.63;;;5.50;;
66145;SDS011;52948;60.040;30.320;2024-02-23T11:21:25;10.45;;;6.18;;
66145;SDS011;52948;60.040;30.320;2024-02-23T11:26:36;6.93;;;4.55;;
66145;SDS011;52948;60.040;30.320;2024-02-23T11:31:44;10.20;;;6.20;;
66145;SDS011;52948;60.040;30.320;2024-02-23T11:36:50;7.50;;;5.32;;
66145;SDS011;52948;60.040;30.320;2024-02-23T11:41:53;8.05;;;4.90;;
66145;SDS011;52948;60.040;30.320;2024-02-23T11:46:55;8.75;;;5.45;;
66145;SDS011;52948;60.040;30.320;2024-02-23T11:51:57;7.85;;;5.25;;
66145;SDS011;52948;60.040;30.320;2024-02-23T11:57:00;8.90;;;5.75;;
66145;SDS011;52948;60.040;30.320;2024-02-23T12:02:02;10.77;;;5.05;;
66145;SDS011;52948;60.040;30.320;2024-02-23T12:07:04;9.90;;;5.85;;
66145;SDS011;52948;60.040;30.320;2024-02-23T12:12:08;7.03;;;3.33;;
66145;SDS011;52948;60.040;30.320;2024-02-23T12:17:11;8.73;;;4.40;;
66145;SDS011;52948;60.040;30.320;2024-02-23T12:22:13;7.18;;;4.32;;
66145;SDS011;52948;60.040;30.320;2024-02-23T12:27:18;9.35;;;5.35;;
66145;SDS011;52948;60.040;30.320;2024-02-23T12:32:21;10.32;;;6.03;;
66145;SDS011;52948;60.040;30.320;2024-02-23T12:37:24;6.63;;;4.15;;
66145;SDS011;52948;60.040;30.320;2024-02-23T12:42:26;6.75;;;3.92;;
66145;SDS011;52948;60.040;30.320;2024-02-23T12:47:28;10.27;;;5.88;;
66145;SDS011;52948;60.040;30.320;2024-02-23T12:52:30;7.13;;;3.17;;
66145;SDS011;52948;60.040;30.320;2024-02-23T12:57:33;9.90;;;4.72;;
66145;SDS011;52948;60.040;30.320;2024-02-23T13:02:35;9.55;;;5.07;;
66145;SDS011;52948;60.040;30.320;2024-02-23T13:07:37;7.63;;;4.53;;
66145;SDS011;52948;60.040;30.320;2024-02-23T13:12:42;7.38;;;4.93;;
66145;SDS011;52948;60.040;30.320;2024-02-23T13:17:44;9.35;;;5.07;;
66145;SDS011;52948;60.040;30.320;2024-02-23T13:22:46;8.98;;;4.82;;
66145;SDS011;52948;60.040;30.320;2024-02-23T13:27:49;8.65;;;5.22;;
66145;SDS011;52948;60.040;30.320;2024-02-23T13:32:51;8.20;;;4.95;;
66145;SDS011;52948;60.040;30.320;2024-02-23T13:37:54;9.02;;;4.70;;
66145;SDS011;52948;60.040;30.320;2024-02-23T13:42:56;7.85;;;4.05;;
66145;SDS011;52948;60.040;30.320;2024-02-23T13:48:02;7.85;;;3.22;;
66145;SDS011;52948;60.040;30.320;2024-02-23T13:53:05;3.38;;;2.17;;
66145;SDS011;52948;60.040;30.320;2024-02-23T13:58:07;7.78;;;4.65;;
66145;SDS011;52948;60.040;30.320;2024-02-23T14:03:10;5.47;;;3.63;;
66145;SDS011;52948;60.040;30.320;2024-02-23T14:08:18;8.55;;;4.32;;
66145;SDS011;52948;60.040;30.320;2024-02-23T14:13:20;1.80;;;1.45;;
66145;SDS011;52948;60.040;30.320;2024-02-23T14:18:23;7.45;;;4.60;;
66145;SDS011;52948;60.040;30.320;2024-02-23T14:23:25;10.48;;;6.72;;
66145;SDS011;52948;60.040;30.320;2024-02-23T14:28:27;5.43;;;3.08;;
66145;SDS011;52948;60.040;30.320;2024-02-23T14:33:31;11.98;;;6.63;;
66145;SDS011;52948;60.040;30.320;2024-02-23T14:38:33;5.03;;;3.33;;
66145;SDS011;52948;60.040;30.320;2024-02-23T14:43:36;10.80;;;7.35;;
66145;SDS011;52948;60.040;30.320;2024-02-23T14:48:39;12.30;;;6.63;;
66145;SDS011;52948;60.040;30.320;2024-02-23T14:53:41;12.23;;;7.53;;
66145;SDS011;52948;60.040;30.320;2024-02-23T14:58:43;12.15;;;7.15;;
66145;SDS011;52948;60.040;30.320;2024-02-23T15:03:46;12.43;;;7.43;;
66145;SDS011;52948;60.040;30.320;2024-02-23T15:08:49;13.50;;;6.90;;
66145;SDS011;52948;60.040;30.320;2024-02-23T15:13:52;11.70;;;6.75;;
66145;SDS011;52948;60.040;30.320;2024-02-23T15:18:59;15.55;;;8.35;;
66145;SDS011;52948;60.040;30.320;2024-02-23T15:24:01;13.02;;;7.90;;
66145;SDS011;52948;60.040;30.320;2024-02-23T15:29:03;14.25;;;7.30;;
66145;SDS011;52948;60.040;30.320;2024-02-23T15:34:06;11.05;;;6.97;;
66145;SDS011;52948;60.040;30.320;2024-02-23T15:39:08;14.73;;;7.25;;
66145;SDS011;52948;60.040;30.320;2024-02-23T15:44:10;15.20;;;8.25;;
66145;SDS011;52948;60.040;30.320;2024-02-23T15:49:13;14.95;;;7.93;;
66145;SDS011;52948;60.040;30.320;2024-02-23T15:54:15;14.43;;;7.20;;
66145;SDS011;52948;60.040;30.320;2024-02-23T15:59:18;15.38;;;8.32;;
66145;SDS011;52948;60.040;30.320;2024-02-23T16:04:20;15.73;;;10.05;;
66145;SDS011;52948;60.040;30.320;2024-02-23T16:09:22;14.13;;;7.13;;
66145;SDS011;52948;60.040;30.320;2024-02-23T16:14:24;16.05;;;8.02;;
66145;SDS011;52948;60.040;30.320;2024-02-23T16:19:27;15.98;;;9.98;;
66145;SDS011;52948;60.040;30.320;2024-02-23T16:24:30;15.15;;;7.38;;
66145;SDS011;52948;60.040;30.320;2024-02-23T16:29:32;15.85;;;7.80;;
66145;SDS011;52948;60.040;30.320;2024-02-23T16:34:34;14.02;;;8.23;;
66145;SDS011;52948;60.040;30.320;2024-02-23T16:39:38;17.17;;;8.57;;
66145;SDS011;52948;60.040;30.320;2024-02-23T16:44:40;16.73;;;9.77;;
66145;SDS011;52948;60.040;30.320;2024-02-23T16:49:43;15.43;;;7.95;;
66145;SDS011;52948;60.040;30.320;2024-02-23T16:54:45;12.27;;;6.72;;
66145;SDS011;52948;60.040;30.320;2024-02-23T16:59:47;18.75;;;9.68;;
66145;SDS011;52948;60.040;30.320;2024-02-23T17:04:50;15.60;;;8.95;;
66145;SDS011;52948;60.040;30.320;2024-02-23T17:09:52;12.48;;;7.57;;
66145;SDS011;52948;60.040;30.320;2024-02-23T17:14:55;15.65;;;7.95;;
66145;SDS011;52948;60.040;30.320;2024-02-23T17:19:57;16.33;;;8.52;;
66145;SDS011;52948;60.040;30.320;2024-02-23T17:24:59;16.80;;;8.50;;
66145;SDS011;52948;60.040;30.320;2024-02-23T17:30:03;14.35;;;7.72;;
66145;SDS011;52948;60.040;30.320;2024-02-23T17:35:06;17.65;;;8.63;;
66145;SDS011;52948;60.040;30.320;2024-02-23T17:40:09;15.40;;;8.63;;
66145;SDS011;52948;60.040;30.320;2024-02-23T17:45:11;15.50;;;8.65;;
66145;SDS011;52948;60.040;30.320;2024-02-23T17:50:13;18.55;;;9.45;;
66145;SDS011;52948;60.040;30.320;2024-02-23T17:55:16;16.35;;;8.02;;
66145;SDS011;52948;60.040;30.320;2024-02-23T18:00:18;16.70;;;9.40;;
66145;SDS011;52948;60.040;30.320;2024-02-23T18:05:21;15.82;;;7.40;;
66145;SDS011;52948;60.040;30.320;2024-02-23T18:10:24;17.45;;;8.85;;
66145;SDS011;52948;60.040;30.320;2024-02-23T18:15:26;17.67;;;10.02;;
66145;SDS011;52948;60.040;30.320;2024-02-23T18:20:28;15.60;;;8.23;;
66145;SDS011;52948;60.040;30.320;2024-02-23T18:25:31;14.10;;;7.15;;
66145;SDS011;52948;60.040;30.320;2024-02-23T18:30:34;18.10;;;8.70;;
66145;SDS011;52948;60.040;30.320;2024-02-23T18:35:36;15.35;;;8.57;;
66145;SDS011;52948;60.040;30.320;2024-02-23T18:40:38;13.75;;;7.72;;
66145;SDS011;52948;60.040;30.320;2024-02-23T18:45:41;15.00;;;7.93;;
66145;SDS011;52948;60.040;30.320;2024-02-23T18:50:43;13.82;;;7.57;;
66145;SDS011;52948;60.040;30.320;2024-02-23T18:55:46;12.52;;;6.65;;
66145;SDS011;52948;60.040;30.320;2024-02-23T19:00:48;11.70;;;6.30;;
66145;SDS011;52948;60.040;30.320;2024-02-23T19:05:50;14.77;;;7.40;;
66145;SDS011;52948;60.040;30.320;2024-02-23T19:10:52;11.43;;;6.03;;
66145;SDS011;52948;60.040;30.320;2024-02-23T19:15:55;10.75;;;5.68;;
66145;SDS011;52948;60.040;30.320;2024-02-23T19:20:57;12.15;;;6.82;;
66145;SDS011;52948;60.040;30.320;2024-02-23T19:26:00;9.93;;;5.63;;
66145;SDS011;52948;60.040;30.320;2024-02-23T19:31:02;10.43;;;6.22;;
66145;SDS011;52948;60.040;30.320;2024-02-23T19:36:05;8.18;;;4.38;;
66145;SDS011;52948;60.040;30.320;2024-02-23T19:41:11;9.32;;;4.95;;
66145;SDS011;52948;60.040;30.320;2024-02-23T19:46:13;8.68;;;4.78;;
66145;SDS011;52948;60.040;30.320;2024-02-23T19:51:20;9.57;;;5.55;;
66145;SDS011;52948;60.040;30.320;2024-02-23T19:56:23;11.07;;;5.60;;
66145;SDS011;52948;60.040;30.320;2024-02-23T20:01:25;7.03;;;4.53;;
66145;SDS011;52948;60.040;30.320;2024-02-23T20:06:28;8.40;;;5.07;;
66145;SDS011;52948;60.040;30.320;2024-02-23T20:11:31;10.40;;;4.90;;
66145;SDS011;52948;60.040;30.320;2024-02-23T20:16:33;7.22;;;4.15;;
66145;SDS011;52948;60.040;30.320;2024-02-23T20:21:38;7.75;;;4.32;;
66145;SDS011;52948;60.040;30.320;2024-02-23T20:26:42;9.75;;;4.50;;
66145;SDS011;52948;60.040;30.320;2024-02-23T20:31:45;9.07;;;4.85;;
66145;SDS011;52948;60.040;30.320;2024-02-23T20:36:49;6.15;;;4.35;;
66145;SDS011;52948;60.040;30.320;2024-02-23T20:41:51;6.80;;;4.00;;
66145;SDS011;52948;60.040;30.320;2024-02-23T20:46:53;6.38;;;3.80;;
66145;SDS011;52948;60.040;30.320;2024-02-23T20:51:56;5.47;;;3.60;;
66145;SDS011;52948;60.040;30.320;2024-02-23T20:56:58;5.57;;;3.15;;
66145;SDS011;52948;60.040;30.320;2024-02-23T21:02:01;4.78;;;3.28;;
66145;SDS011;52948;60.040;30.320;2024-02-23T21:07:04;5.00;;;2.72;;
66145;SDS011;52948;60.040;30.320;2024-02-23T21:12:06;3.78;;;2.10;;
66145;SDS011;52948;60.040;30.320;2024-02-23T21:17:09;4.53;;;2.60;;
66145;SDS011;52948;60.040;30.320;2024-02-23T21:22:11;4.93;;;2.90;;
66145;SDS011;52948;60.040;30.320;2024-02-23T21:27:13;4.22;;;3.15;;
66145;SDS011;52948;60.040;30.320;2024-02-23T21:32:16;4.45;;;3.17;;
66145;SDS011;52948;60.040;30.320;2024-02-23T21:37:18;4.63;;;2.55;;
66145;SDS011;52948;60.040;30.320;2024-02-23T21:42:22;4.55;;;2.38;;
66145;SDS011;52948;60.040;30.320;2024-02-23T21:47:24;5.05;;;3.20;;
66145;SDS011;52948;60.040;30.320;2024-02-23T21:52:27;5.47;;;3.60;;
66145;SDS011;52948;60.040;30.320;2024-02-23T21:57:29;4.78;;;3.10;;
66145;SDS011;52948;60.040;30.320;2024-02-23T22:02:31;5.38;;;3.47;;
66145;SDS011;52948;60.040;30.320;2024-02-23T22:07:33;6.43;;;3.83;;
66145;SDS011;52948;60.040;30.320;2024-02-23T22:12:35;4.43;;;3.00;;
66145;SDS011;52948;60.040;30.320;2024-02-23T22:17:38;4.85;;;2.97;;
66145;SDS011;52948;60.040;30.320;2024-02-23T22:22:40;4.90;;;3.30;;
66145;SDS011;52948;60.040;30.320;2024-02-23T22:27:42;5.10;;;3.17;;
66145;SDS011;52948;60.040;30.320;2024-02-23T22:32:45;5.03;;;3.38;;
66145;SDS011;52948;60.040;30.320;2024-02-23T22:37:47;4.82;;;2.47;;
66145;SDS011;52948;60.040;30.320;2024-02-23T22:42:49;4.18;;;2.85;;
66145;SDS011;52948;60.040;30.320;2024-02-23T22:47:51;5.00;;;3.00;;
66145;SDS011;52948;60.040;30.320;2024-02-23T22:52:54;4.13;;;2.75;;
66145;SDS011;52948;60.040;30.320;2024-02-23T22:57:56;3.75;;;2.35;;
66145;SDS011;52948;60.040;30.320;2024-02-23T23:02:58;4.75;;;2.53;;
66145;SDS011;52948;60.040;30.320;2024-02-23T23:08:00;2.88;;;2.15;;
66145;SDS011;52948;60.040;30.320;2024-02-23T23:13:02;3.38;;;2.15;;
66145;SDS011;52948;60.040;30.320;2024-02-23T23:18:05;2.17;;;1.50;;
66145;SDS011;52948;60.040;30.320;2024-02-23T23:23:08;2.10;;;1.63;;
66145;SDS011;52948;60.040;30.320;2024-02-23T23:28:10;3.40;;;2.33;;
66145;SDS011;52948;60.040;30.320;2024-02-23T23:33:13;1.75;;;1.55;;
66145;SDS011;52948;60.040;30.320;2024-02-23T23:38:16;2.97;;;1.92;;
66145;SDS011;52948;60.040;30.320;2024-02-23T23:43:18;2.45;;;1.90;;
66145;SDS011;52948;60.040;30.320;2024-02-23T23:48:21;2.85;;;1.42;;
66145;SDS011;52948;60.040;30.320;2024-02-23T23:53:24;2.75;;;1.50;;
66145;SDS011;52948;60.040;30.320;2024-02-23T23:58:26;2.28;;;1.17;;
